createdAt,value
2024-04-16T00:00:40.383Z,10.38
2024-04-16T00:03:09.781Z,9.89
2024-04-16T00:05:36.929Z,9.49
2024-04-16T00:08:03.946Z,9.42
2024-04-16T00:10:30.746Z,9.13
2024-04-16T00:12:57.515Z,9.07
2024-04-16T00:15:24.318Z,8.90
2024-04-16T00:17:51.174Z,8.55
2024-04-16T00:20:18.309Z,8.50
2024-04-16T00:22:45.195Z,8.32
2024-04-16T00:25:12.405Z,8.30
2024-04-16T00:27:39.277Z,8.27
2024-04-16T00:30:06.965Z,8.28
2024-04-16T00:32:33.719Z,8.16
2024-04-16T00:35:00.522Z,8.05
2024-04-16T00:37:27.393Z,8.04
2024-04-16T00:39:54.128Z,8.08
2024-04-16T00:42:20.865Z,8.13
2024-04-16T00:44:47.622Z,8.18
2024-04-16T00:47:15.530Z,8.06
2024-04-16T00:49:42.318Z,8.13
2024-04-16T00:52:09.307Z,8.25
2024-04-16T00:54:36.417Z,8.44
2024-04-16T00:57:04.348Z,8.34
2024-04-16T00:59:32.654Z,8.41
2024-04-16T01:01:59.350Z,8.46
2024-04-16T01:04:27.100Z,8.49
2024-04-16T01:06:53.969Z,8.53
2024-04-16T01:09:21.019Z,8.52
2024-04-16T01:11:47.804Z,8.60
2024-04-16T01:14:14.767Z,8.54
2024-04-16T01:16:41.897Z,8.57
2024-04-16T01:19:09.684Z,8.47
2024-04-16T01:21:36.675Z,8.56
2024-04-16T01:24:03.455Z,8.39
2024-04-16T01:26:30.126Z,8.39
2024-04-16T01:28:57.209Z,8.38
2024-04-16T01:31:24.789Z,8.44
2024-04-16T01:33:51.635Z,8.52
2024-04-16T01:36:18.418Z,8.54
2024-04-16T01:38:45.409Z,8.59
2024-04-16T01:41:13.403Z,8.62
2024-04-16T01:43:40.563Z,8.53
2024-04-16T01:46:07.629Z,8.50
2024-04-16T01:48:34.468Z,8.50
2024-04-16T01:51:01.575Z,8.45
2024-04-16T01:53:28.435Z,8.48
2024-04-16T01:55:55.115Z,8.41
2024-04-16T01:58:21.867Z,8.44
2024-04-16T02:00:48.594Z,8.47
2024-04-16T02:03:15.417Z,8.31
2024-04-16T02:05:42.279Z,8.31
2024-04-16T02:08:09.024Z,8.36
2024-04-16T02:10:35.846Z,8.20
2024-04-16T02:13:02.742Z,8.29
2024-04-16T02:15:29.521Z,8.37
2024-04-16T02:17:56.295Z,8.42
2024-04-16T02:20:23.110Z,8.42
2024-04-16T02:22:49.976Z,8.35
2024-04-16T02:25:16.804Z,8.26
2024-04-16T02:27:43.532Z,8.29
2024-04-16T02:30:10.311Z,8.28
2024-04-16T02:32:37.103Z,8.26
2024-04-16T02:35:04.096Z,8.34
2024-04-16T02:37:30.855Z,8.29
2024-04-16T02:39:57.635Z,8.25
2024-04-16T02:42:24.346Z,8.26
2024-04-16T02:44:51.120Z,8.32
2024-04-16T02:47:17.892Z,8.25
2024-04-16T02:49:44.683Z,8.08
2024-04-16T02:52:11.391Z,8.13
2024-04-16T02:54:38.344Z,8.04
2024-04-16T02:57:05.356Z,7.86
2024-04-16T02:59:32.035Z,7.81
2024-04-16T03:01:58.851Z,7.67
2024-04-16T03:04:25.693Z,7.72
2024-04-16T03:06:52.402Z,7.60
2024-04-16T03:09:19.104Z,7.62
2024-04-16T03:11:45.876Z,7.58
2024-04-16T03:14:12.566Z,7.68
2024-04-16T03:16:39.351Z,7.74
2024-04-16T03:19:06.153Z,7.81
2024-04-16T03:21:33.542Z,7.67
2024-04-16T03:24:00.286Z,7.65
2024-04-16T03:26:28.188Z,7.66
2024-04-16T03:28:54.879Z,7.63
2024-04-16T03:31:21.748Z,7.61
2024-04-16T03:33:48.831Z,7.52
2024-04-16T03:36:15.645Z,7.48
2024-04-16T03:38:42.387Z,7.58
2024-04-16T03:41:09.114Z,7.52
2024-04-16T03:43:35.927Z,7.47
2024-04-16T03:46:04.540Z,7.23
2024-04-16T03:48:31.576Z,6.95
2024-04-16T03:50:58.272Z,6.75
2024-04-16T03:53:24.930Z,6.73
2024-04-16T03:55:51.868Z,6.71
2024-04-16T03:58:18.863Z,6.69
2024-04-16T04:01:01.918Z,6.66
2024-04-16T04:03:28.812Z,6.54
2024-04-16T04:05:56.680Z,6.54
2024-04-16T04:08:23.791Z,6.53
2024-04-16T04:10:50.770Z,6.57
2024-04-16T04:13:17.517Z,6.63
2024-04-16T04:15:44.308Z,6.66
2024-04-16T04:18:11.439Z,6.75
2024-04-16T04:20:41.264Z,6.76
2024-04-16T04:23:08.876Z,6.66
2024-04-16T04:25:36.007Z,6.66
2024-04-16T04:28:02.904Z,6.50
2024-04-16T04:30:29.820Z,6.59
2024-04-16T04:32:56.784Z,6.55
2024-04-16T04:35:23.567Z,6.65
2024-04-16T04:37:50.413Z,6.70
2024-04-16T04:40:17.362Z,6.58
2024-04-16T04:42:44.157Z,6.48
2024-04-16T04:45:11.014Z,6.64
2024-04-16T04:47:37.801Z,6.61
2024-04-16T04:50:05.075Z,6.60
2024-04-16T04:52:31.834Z,6.57
2024-04-16T04:55:00.497Z,6.55
2024-04-16T04:57:27.246Z,6.55
2024-04-16T04:59:53.948Z,6.57
2024-04-16T05:02:20.620Z,6.45
2024-04-16T05:04:47.336Z,6.54
2024-04-16T05:07:14.058Z,6.53
2024-04-16T05:09:40.816Z,6.51
2024-04-16T05:12:07.526Z,6.58
2024-04-16T05:14:34.240Z,6.62
2024-04-16T05:17:00.914Z,6.62
2024-04-16T05:19:27.676Z,6.58
2024-04-16T05:21:54.475Z,6.46
2024-04-16T05:24:21.180Z,6.34
2024-04-16T05:26:47.814Z,6.35
2024-04-16T05:29:14.585Z,6.36
2024-04-16T05:31:41.340Z,6.27
2024-04-16T05:34:08.025Z,6.29
2024-04-16T05:36:34.799Z,6.18
2024-04-16T05:39:01.518Z,6.36
2024-04-16T05:41:28.188Z,6.33
2024-04-16T05:43:55.001Z,6.41
2024-04-16T05:46:21.698Z,6.42
2024-04-16T05:48:49.041Z,6.34
2024-04-16T05:51:15.808Z,6.31
2024-04-16T05:53:42.527Z,6.31
2024-04-16T05:56:09.182Z,6.47
2024-04-16T05:58:35.971Z,6.56
2024-04-16T06:01:07.303Z,6.60
2024-04-16T06:03:34.382Z,6.61
2024-04-16T06:06:02.561Z,6.57
2024-04-16T06:08:30.443Z,6.59
2024-04-16T06:10:57.431Z,6.69
2024-04-16T06:13:24.137Z,6.59
2024-04-16T06:15:50.887Z,6.61
2024-04-16T06:18:17.581Z,6.46
2024-04-16T06:20:44.344Z,6.50
2024-04-16T06:23:11.167Z,6.59
2024-04-16T06:25:41.120Z,6.59
2024-04-16T06:28:07.977Z,6.68
2024-04-16T06:30:34.676Z,6.82
2024-04-16T06:33:01.447Z,6.89
2024-04-16T06:35:28.178Z,6.79
2024-04-16T06:37:54.922Z,6.86
2024-04-16T06:40:21.709Z,6.91
2024-04-16T06:42:48.475Z,7.05
2024-04-16T06:45:15.182Z,7.12
2024-04-16T06:47:42.255Z,7.21
2024-04-16T06:50:09.086Z,7.14
2024-04-16T06:52:35.783Z,7.16
2024-04-16T06:55:02.772Z,7.00
2024-04-16T06:57:29.453Z,6.94
2024-04-16T06:59:57.628Z,7.13
2024-04-16T07:02:24.558Z,7.27
2024-04-16T07:04:51.297Z,7.26
2024-04-16T07:07:18.015Z,7.12
2024-04-16T07:09:44.793Z,7.15
2024-04-16T07:12:11.538Z,7.36
2024-04-16T07:14:38.323Z,7.47
2024-04-16T07:17:05.334Z,7.24
2024-04-16T07:19:32.075Z,7.24
2024-04-16T07:21:58.864Z,7.33
2024-04-16T07:24:25.568Z,7.19
2024-04-16T07:26:52.284Z,7.21
2024-04-16T07:29:18.981Z,7.31
2024-04-16T07:31:49.846Z,7.35
2024-04-16T07:34:17.501Z,7.35
2024-04-16T07:36:44.199Z,7.11
2024-04-16T07:39:11.491Z,7.33
2024-04-16T07:41:38.190Z,7.47
2024-04-16T07:44:04.911Z,7.62
2024-04-16T07:46:34.867Z,7.74
2024-04-16T07:49:02.166Z,7.74
2024-04-16T07:51:28.942Z,7.79
2024-04-16T07:53:55.632Z,7.70
2024-04-16T07:56:22.828Z,7.92
2024-04-16T07:58:49.672Z,7.99
2024-04-16T08:01:18.252Z,8.06
2024-04-16T08:03:45.604Z,8.11
2024-04-16T08:06:12.335Z,8.05
2024-04-16T08:08:39.387Z,8.03
2024-04-16T08:11:14.216Z,7.78
2024-04-16T08:13:42.031Z,7.56
2024-04-16T08:16:10.116Z,7.61
2024-04-16T08:18:37.155Z,7.51
2024-04-16T08:21:05.309Z,7.58
2024-04-16T08:23:32.289Z,7.63
2024-04-16T08:26:07.272Z,7.70
2024-04-16T08:28:35.903Z,7.83
2024-04-16T08:31:03.703Z,7.77
2024-04-16T08:33:31.041Z,7.47
2024-04-16T08:35:58.234Z,7.40
2024-04-16T08:38:25.487Z,7.46
2024-04-16T08:40:52.736Z,7.58
2024-04-16T08:43:21.775Z,7.80
2024-04-16T08:45:50.375Z,7.47
2024-04-16T08:48:18.215Z,7.40
2024-04-16T08:50:47.307Z,7.38
2024-04-16T08:53:14.658Z,7.46
2024-04-16T08:55:43.162Z,7.59
2024-04-16T08:58:10.379Z,7.71
2024-04-16T09:00:37.282Z,7.84
2024-04-16T09:03:05.288Z,7.81
2024-04-16T09:05:33.759Z,7.87
2024-04-16T09:08:00.861Z,7.81
2024-04-16T09:10:27.702Z,7.76
2024-04-16T09:12:55.332Z,7.58
2024-04-16T09:15:22.705Z,7.59
2024-04-16T09:17:56.761Z,7.80
2024-04-16T09:20:26.741Z,7.92
2024-04-16T09:22:54.954Z,7.95
2024-04-16T09:25:23.950Z,8.11
2024-04-16T09:27:52.544Z,8.11
2024-04-16T09:30:19.592Z,8.00
2024-04-16T09:32:48.458Z,7.84
2024-04-16T09:35:20.662Z,7.93
2024-04-16T09:37:49.331Z,7.89
2024-04-16T09:40:18.821Z,8.12
2024-04-16T09:42:46.653Z,8.15
2024-04-16T09:45:14.047Z,8.38
2024-04-16T09:47:42.530Z,8.49
2024-04-16T09:50:21.403Z,8.47
2024-04-16T09:52:56.620Z,8.43
2024-04-16T09:55:24.356Z,8.53
2024-04-16T09:57:52.735Z,8.39
2024-04-16T10:00:20.911Z,8.42
2024-04-16T10:02:48.598Z,8.34
2024-04-16T10:05:16.777Z,8.20
2024-04-16T10:07:47.785Z,8.23
2024-04-16T10:10:16.363Z,8.26
2024-04-16T10:12:43.833Z,8.36
2024-04-16T10:15:14.212Z,8.42
2024-04-16T10:17:53.845Z,8.35
2024-04-16T10:20:24.480Z,8.38
2024-04-16T10:22:56.059Z,8.47
2024-04-16T10:25:31.147Z,8.39
2024-04-16T10:28:03.954Z,8.52
2024-04-16T10:30:32.616Z,8.40
2024-04-16T10:33:03.320Z,8.42
2024-04-16T10:35:32.433Z,8.56
2024-04-16T10:37:59.274Z,8.73
2024-04-16T10:40:31.315Z,8.62
2024-04-16T10:42:59.831Z,8.64
2024-04-16T10:45:26.662Z,8.77
2024-04-16T10:47:53.724Z,8.85
2024-04-16T10:50:20.884Z,8.90
2024-04-16T10:52:47.806Z,9.06
2024-04-16T10:55:14.731Z,9.26
2024-04-16T10:57:43.095Z,9.12
2024-04-16T11:00:11.308Z,9.00
2024-04-16T11:02:39.063Z,8.99
2024-04-16T11:05:06.877Z,8.86
2024-04-16T11:07:38.027Z,8.88
2024-04-16T11:10:06.055Z,8.86
2024-04-16T11:12:33.011Z,8.89
2024-04-16T11:14:59.893Z,8.86
2024-04-16T11:17:29.876Z,8.94
2024-04-16T11:19:57.998Z,9.02
2024-04-16T11:22:26.489Z,9.08
2024-04-16T11:24:55.500Z,9.04
2024-04-16T11:27:24.136Z,9.00
2024-04-16T11:29:51.798Z,8.94
2024-04-16T11:32:19.900Z,8.84
2024-04-16T11:34:47.435Z,8.90
2024-04-16T11:37:15.222Z,9.05
2024-04-16T11:39:43.533Z,9.06
2024-04-16T11:42:12.241Z,9.08
2024-04-16T11:44:39.430Z,8.95
2024-04-16T11:47:07.481Z,8.82
2024-04-16T11:49:34.475Z,8.66
2024-04-16T11:52:05.670Z,8.67
2024-04-16T11:54:36.735Z,8.61
2024-04-16T11:57:05.109Z,8.79
2024-04-16T11:59:36.198Z,8.87
2024-04-16T12:02:03.686Z,9.13
2024-04-16T12:04:31.271Z,9.37
2024-04-16T12:06:58.423Z,9.49
2024-04-16T12:09:25.345Z,9.60
2024-04-16T12:11:52.746Z,9.54
2024-04-16T12:14:21.005Z,9.46
2024-04-16T12:16:51.169Z,9.49
2024-04-16T12:19:19.097Z,9.33
2024-04-16T12:21:46.088Z,9.34
2024-04-16T12:24:12.994Z,9.17
2024-04-16T12:26:40.107Z,9.22
2024-04-16T12:29:06.998Z,9.23
2024-04-16T12:31:34.059Z,9.12
2024-04-16T12:34:03.420Z,9.01
2024-04-16T12:36:31.662Z,9.08
2024-04-16T12:38:58.642Z,9.06
2024-04-16T12:41:25.583Z,9.23
2024-04-16T12:43:52.352Z,9.38
2024-04-16T12:46:19.388Z,9.39
2024-04-16T12:48:46.858Z,9.46
2024-04-16T12:51:13.694Z,9.51
2024-04-16T12:53:40.450Z,9.51
2024-04-16T12:56:08.554Z,9.44
2024-04-16T12:58:35.565Z,9.44
2024-04-16T13:01:02.594Z,9.32
2024-04-16T13:03:29.467Z,9.34
2024-04-16T13:05:56.234Z,9.34
2024-04-16T13:08:23.223Z,9.40
2024-04-16T13:10:54.748Z,9.48
2024-04-16T13:13:21.525Z,9.46
2024-04-16T13:15:48.420Z,9.39
2024-04-16T13:18:15.369Z,9.30
2024-04-16T13:20:42.268Z,9.05
2024-04-16T13:23:09.281Z,8.97
2024-04-16T13:25:36.016Z,9.08
2024-04-16T13:28:03.003Z,9.21
2024-04-16T13:30:30.005Z,9.38
2024-04-16T13:32:59.134Z,9.51
2024-04-16T13:35:26.485Z,9.54
2024-04-16T13:37:54.531Z,9.54
2024-04-16T13:40:21.833Z,9.65
2024-04-16T13:42:48.679Z,9.65
2024-04-16T13:45:15.586Z,9.64
2024-04-16T13:47:42.482Z,9.63
2024-04-16T13:50:09.253Z,9.64
2024-04-16T13:52:36.067Z,9.73
2024-04-16T13:55:03.029Z,9.79
2024-04-16T13:57:29.784Z,9.67
2024-04-16T13:59:56.579Z,9.62
2024-04-16T14:02:23.453Z,9.58
2024-04-16T14:04:50.252Z,9.61
2024-04-16T14:07:17.117Z,9.62
2024-04-16T14:09:43.916Z,9.62
2024-04-16T14:12:10.621Z,9.63
2024-04-16T14:14:37.400Z,9.63
2024-04-16T14:17:04.192Z,9.58
2024-04-16T14:19:31.090Z,9.61
2024-04-16T14:21:58.525Z,9.61
2024-04-16T14:24:28.081Z,9.70
2024-04-16T14:26:54.811Z,9.70
2024-04-16T14:29:21.539Z,9.73
2024-04-16T14:31:48.355Z,9.81
2024-04-16T14:34:15.370Z,9.79
2024-04-16T14:36:42.218Z,9.77
2024-04-16T14:39:11.134Z,9.80
2024-04-16T14:41:39.299Z,9.86
2024-04-16T14:44:06.089Z,9.99
2024-04-16T14:46:32.885Z,10.04
2024-04-16T14:48:59.687Z,10.08
2024-04-16T14:51:26.497Z,10.07
2024-04-16T14:53:53.238Z,10.03
2024-04-16T14:56:19.952Z,9.95
2024-04-16T14:58:46.856Z,9.94
2024-04-16T15:01:15.078Z,9.92
2024-04-16T15:03:41.875Z,9.88
2024-04-16T15:06:09.216Z,9.88
2024-04-16T15:08:35.955Z,9.79
2024-04-16T15:11:02.711Z,9.68
2024-04-16T15:13:29.500Z,9.64
2024-04-16T15:15:57.477Z,9.67
2024-04-16T15:18:24.544Z,9.62
2024-04-16T15:20:51.302Z,9.61
2024-04-16T15:23:18.119Z,9.61
2024-04-16T15:25:45.110Z,9.61
2024-04-16T15:28:11.943Z,9.61
2024-04-16T15:30:38.737Z,9.65
2024-04-16T15:33:05.832Z,9.68
2024-04-16T15:35:51.959Z,9.69
2024-04-16T15:38:19.530Z,9.67
2024-04-16T15:40:46.562Z,9.66
2024-04-16T15:43:14.824Z,9.59
2024-04-16T15:45:41.986Z,9.59
2024-04-16T15:48:10.303Z,9.61
2024-04-16T15:50:37.402Z,9.61
2024-04-16T15:53:04.265Z,9.67
2024-04-16T15:55:31.078Z,9.64
2024-04-16T15:57:57.886Z,9.65
2024-04-16T16:00:26.793Z,9.66
2024-04-16T16:02:54.107Z,9.63
2024-04-16T16:05:21.274Z,9.61
2024-04-16T16:07:48.104Z,9.54
2024-04-16T16:10:15.040Z,9.53
2024-04-16T16:12:41.959Z,9.47
2024-04-16T16:15:09.741Z,9.45
2024-04-16T16:17:36.505Z,9.48
2024-04-16T16:20:05.300Z,9.52
2024-04-16T16:22:32.097Z,9.47
2024-04-16T16:24:58.823Z,9.47
2024-04-16T16:27:25.736Z,9.49
2024-04-16T16:29:52.786Z,9.51
2024-04-16T16:32:19.566Z,9.56
2024-04-16T16:34:46.414Z,9.63
2024-04-16T16:37:13.131Z,9.64
2024-04-16T16:39:39.846Z,9.53
2024-04-16T16:42:06.795Z,9.44
2024-04-16T16:44:33.505Z,9.30
2024-04-16T16:47:00.190Z,9.33
2024-04-16T16:49:26.974Z,9.35
2024-04-16T16:51:53.687Z,9.40
2024-04-16T16:54:20.375Z,9.42
2024-04-16T16:56:47.106Z,9.41
2024-04-16T16:59:13.824Z,9.43
2024-04-16T17:01:40.589Z,9.48
2024-04-16T17:04:07.667Z,9.45
2024-04-16T17:06:34.484Z,9.40
2024-04-16T17:09:01.188Z,9.44
2024-04-16T17:11:28.012Z,9.36
2024-04-16T17:13:54.879Z,9.43
2024-04-16T17:16:21.965Z,9.47
2024-04-16T17:18:49.037Z,9.47
2024-04-16T17:21:15.981Z,9.49
2024-04-16T17:23:42.727Z,9.46
2024-04-16T17:26:09.528Z,9.42
2024-04-16T17:28:36.679Z,9.44
2024-04-16T17:31:04.639Z,9.40
2024-04-16T17:33:31.835Z,9.50
2024-04-16T17:35:58.696Z,9.42
2024-04-16T17:38:25.447Z,9.49
2024-04-16T17:40:52.443Z,9.45
2024-04-16T17:43:19.636Z,9.50
2024-04-16T17:45:47.109Z,9.43
2024-04-16T17:48:14.177Z,9.39
2024-04-16T17:50:40.989Z,9.38
2024-04-16T17:53:07.709Z,9.22
2024-04-16T17:55:35.403Z,9.23
2024-04-16T17:58:02.155Z,9.19
2024-04-16T18:00:28.852Z,9.14
2024-04-16T18:02:55.622Z,9.09
2024-04-16T18:05:22.407Z,9.03
2024-04-16T18:07:49.169Z,9.04
2024-04-16T18:10:16.010Z,9.10
2024-04-16T18:12:42.719Z,9.11
2024-04-16T18:15:10.171Z,9.10
2024-04-16T18:17:37.312Z,9.11
2024-04-16T18:20:04.498Z,9.03
2024-04-16T18:22:31.447Z,8.97
2024-04-16T18:24:58.499Z,8.97
2024-04-16T18:27:25.333Z,8.93
2024-04-16T18:29:52.095Z,8.95
2024-04-16T18:32:18.991Z,8.92
2024-04-16T18:34:47.540Z,9.01
2024-04-16T18:37:15.808Z,8.98
2024-04-16T18:39:42.773Z,8.96
2024-04-16T18:42:11.054Z,8.97
2024-04-16T18:44:37.878Z,8.94
2024-04-16T18:47:06.202Z,8.99
2024-04-16T18:49:33.201Z,8.91
2024-04-16T18:52:00.026Z,8.91
2024-04-16T18:54:26.893Z,8.93
2024-04-16T18:56:54.088Z,8.95
2024-04-16T18:59:20.808Z,8.94
2024-04-16T19:01:47.623Z,8.88
2024-04-16T19:04:14.483Z,8.91
2024-04-16T19:06:41.992Z,8.92
2024-04-16T19:09:09.238Z,8.95
2024-04-16T19:11:37.993Z,8.98
2024-04-16T19:14:05.200Z,9.02
2024-04-16T19:16:32.122Z,9.03
2024-04-16T19:18:59.082Z,9.05
2024-04-16T19:21:25.851Z,9.03
2024-04-16T19:23:52.595Z,8.99
2024-04-16T19:26:19.501Z,8.99
2024-04-16T19:28:46.504Z,8.96
2024-04-16T19:31:13.285Z,8.98
2024-04-16T19:33:40.125Z,9.00
2024-04-16T19:36:06.995Z,9.00
2024-04-16T19:38:33.760Z,8.98
2024-04-16T19:41:00.749Z,8.97
2024-04-16T19:43:27.832Z,8.96
2024-04-16T19:45:56.226Z,8.91
2024-04-16T19:48:25.731Z,8.96
2024-04-16T19:50:52.694Z,8.86
2024-04-16T19:53:19.450Z,8.86
2024-04-16T19:55:49.921Z,8.88
2024-04-16T19:58:16.725Z,8.89
2024-04-16T20:00:43.472Z,8.86
2024-04-16T20:03:10.352Z,8.88
2024-04-16T20:05:37.208Z,8.88
2024-04-16T20:08:04.209Z,8.97
2024-04-16T20:10:31.015Z,8.92
2024-04-16T20:12:57.797Z,8.98
2024-04-16T20:15:24.568Z,8.94
2024-04-16T20:17:51.359Z,8.95
2024-04-16T20:20:18.198Z,8.95
2024-04-16T20:22:48.692Z,9.00
2024-04-16T20:25:18.907Z,9.01
2024-04-16T20:27:46.075Z,9.02
2024-04-16T20:30:13.141Z,8.99
2024-04-16T20:32:39.915Z,9.00
2024-04-16T20:35:06.876Z,9.00
2024-04-16T20:37:33.620Z,9.05
2024-04-16T20:40:01.391Z,8.95
2024-04-16T20:42:28.086Z,8.97
2024-04-16T20:44:54.827Z,8.95
2024-04-16T20:47:21.636Z,8.91
2024-04-16T20:49:48.475Z,8.80
2024-04-16T20:52:15.423Z,8.77
2024-04-16T20:54:42.156Z,8.75
2024-04-16T20:57:08.873Z,8.75
2024-04-16T20:59:38.283Z,8.76
2024-04-16T21:02:06.278Z,8.79
2024-04-16T21:04:33.015Z,8.76
2024-04-16T21:06:59.811Z,8.71
2024-04-16T21:09:26.543Z,8.79
2024-04-16T21:11:53.253Z,8.70
2024-04-16T21:14:20.072Z,8.68
2024-04-16T21:16:48.170Z,8.74
2024-04-16T21:19:14.992Z,8.78
2024-04-16T21:21:41.844Z,8.77
2024-04-16T21:24:08.584Z,8.80
2024-04-16T21:26:35.319Z,8.74
2024-04-16T21:29:02.115Z,8.73
2024-04-16T21:31:29.202Z,8.78
2024-04-16T21:33:55.930Z,8.81
2024-04-16T21:36:22.718Z,8.79
2024-04-16T21:38:49.431Z,8.78
2024-04-16T21:41:16.282Z,8.80
2024-04-16T21:43:44.306Z,8.71
2024-04-16T21:46:11.169Z,8.72
2024-04-16T21:48:37.894Z,8.78
2024-04-16T21:51:04.867Z,8.75
2024-04-16T21:53:31.589Z,8.81
2024-04-16T21:55:58.370Z,8.82
2024-04-16T21:58:25.196Z,8.76
2024-04-16T22:00:52.177Z,8.77
2024-04-16T22:03:19.592Z,8.72
2024-04-16T22:05:46.463Z,8.74
2024-04-16T22:08:13.170Z,8.64
2024-04-16T22:10:39.911Z,8.62
2024-04-16T22:13:06.779Z,8.60
2024-04-16T22:15:33.510Z,8.52
2024-04-16T22:18:00.359Z,8.44
2024-04-16T22:20:27.168Z,8.46
2024-04-16T22:22:54.172Z,8.43
2024-04-16T22:25:23.335Z,8.38
2024-04-16T22:27:53.271Z,8.37
2024-04-16T22:30:20.041Z,8.34
2024-04-16T22:32:47.661Z,8.29
2024-04-16T22:35:14.573Z,8.25
2024-04-16T22:37:41.918Z,8.24
2024-04-16T22:40:09.047Z,8.25
2024-04-16T22:42:35.767Z,8.25
2024-04-16T22:45:02.875Z,8.13
2024-04-16T22:47:29.605Z,8.14
2024-04-16T22:49:59.693Z,8.17
2024-04-16T22:52:27.032Z,8.16
2024-04-16T22:54:53.797Z,8.05
2024-04-16T22:57:20.560Z,7.99
2024-04-16T22:59:47.355Z,7.96
2024-04-16T23:02:14.274Z,7.93
2024-04-16T23:04:41.307Z,7.29
2024-04-16T23:07:08.025Z,7.11
2024-04-16T23:09:34.726Z,6.88
2024-04-16T23:12:01.552Z,6.76
2024-04-16T23:14:28.370Z,6.74
2024-04-16T23:16:55.235Z,6.71
2024-04-16T23:19:22.187Z,6.57
2024-04-16T23:21:49.035Z,6.47
2024-04-16T23:24:15.742Z,6.31
2024-04-16T23:26:42.449Z,6.15
2024-04-16T23:29:09.169Z,6.05
2024-04-16T23:31:35.901Z,6.00
2024-04-16T23:34:02.679Z,5.97
2024-04-16T23:36:29.424Z,6.06
2024-04-16T23:38:56.111Z,6.01
2024-04-16T23:41:22.848Z,5.84
2024-04-16T23:43:49.637Z,5.88
2024-04-16T23:46:16.404Z,5.79
2024-04-16T23:48:43.319Z,5.68
2024-04-16T23:51:10.140Z,5.57
2024-04-16T23:53:36.880Z,5.55
2024-04-16T23:56:03.713Z,5.50
2024-04-16T23:58:30.444Z,5.63
